KBBP

Marlboro County Jetport - H E Avent Field Airport

Bennettsville, South Carolina, USA
METAR KBBP 210415Z AUTO 00000KT 10SM CLR 01/M01 A3023 RMK AO2
Observed Flight Rules
Jan-21 @ 04:15 UTC (32 minutes ago) Visual Flight Rules
Wind Visibility Clouds
Calm 10 miles
  • Clear skies
Temperatures Readings
Current 1°C / 34°F
Dewpoint -1°C / 30°F
Humidity 87%
Altimeter 30.23" Hg
Pressure 1024 hPa
Elevation 45
METAR KBBP 210415Z AUTO 00000KT 10SM CLR 01/M01 A3023 RMK AO2
Observed Flight Rules
Jan-21 @ 04:15 UTC
(32 minutes ago)
VFR
Wind Visibility
Calm 10 miles
Clouds
  • Clear skies
Temperature Dewpoint
1°C / 34°F -1°C / 30°F
Humidity Altimeter Pressure
87% 30.23" Hg 1024 hPa